Time;durP1;ratioP1;P1;durP2;ratioP2;P2;SDS_P1;SDS_P2;PMS_P1;PMS_P2;Temp;Humidity;BMP_temperature;BMP_pressure;BME280_temperature;BME280_humidity;BME280_pressure;Samples;Min_cycle;Max_cycle;Signal;HPM_P1;HPM_P2
2021/10/07 00:00:41;;;;;;;20.80;13.02;;;10.10;99.90;;;;;;5073259;28;20068;-74
2021/10/07 00:03:06;;;;;;;20.30;13.85;;;10.10;99.90;;;;;;5073266;28;20493;-74
2021/10/07 00:05:32;;;;;;;21.00;13.02;;;10.10;99.90;;;;;;5073339;28;20062;-74
2021/10/07 00:07:58;;;;;;;22.27;13.57;;;10.10;99.90;;;;;;5073097;28;20049;-74
2021/10/07 00:10:24;;;;;;;21.77;13.40;;;10.10;99.90;;;;;;5072792;28;20111;-74
2021/10/07 00:12:50;;;;;;;21.65;13.75;;;10.20;99.90;;;;;;5071722;28;20047;-74
2021/10/07 00:15:15;;;;;;;23.55;15.57;;;10.20;99.90;;;;;;5073296;28;20119;-74
2021/10/07 00:17:41;;;;;;;26.20;16.30;;;10.20;99.90;;;;;;5072859;28;20048;-74
2021/10/07 00:20:09;;;;;;;29.90;16.77;;;10.30;99.90;;;;;;5075776;28;20043;-74
2021/10/07 00:22:38;;;;;;;25.77;14.90;;;10.30;99.90;;;;;;5077498;28;20043;-74
2021/10/07 00:25:04;;;;;;;31.00;15.65;;;10.30;99.90;;;;;;5077486;28;20093;-74
2021/10/07 00:27:29;;;;;;;30.10;17.23;;;10.30;99.90;;;;;;5077056;28;20040;-74
2021/10/07 00:29:59;;;;;;;24.35;15.00;;;10.30;99.90;;;;;;5076548;28;20511;-74
2021/10/07 00:32:29;;;;;;;22.60;13.30;;;10.30;99.90;;;;;;5076884;28;20040;-74
2021/10/07 00:39:52;;;;;;;40.38;15.40;;;10.30;99.90;;;;;;5076358;28;20094;-74
2021/10/07 00:42:19;;;;;;;25.52;15.20;;;10.30;99.90;;;;;;5075204;28;20052;-74
2021/10/07 00:44:45;;;;;;;27.13;14.77;;;10.40;99.90;;;;;;5076789;28;20044;-74
2021/10/07 00:47:13;;;;;;;22.98;13.32;;;10.40;99.90;;;;;;5076793;28;20365;-74
2021/10/07 00:49:39;;;;;;;39.03;17.10;;;10.50;99.90;;;;;;5076299;28;20037;-74
2021/10/07 00:52:09;;;;;;;43.40;18.45;;;10.40;99.90;;;;;;5076291;28;20047;-74
2021/10/07 00:54:36;;;;;;;28.90;17.08;;;10.40;99.90;;;;;;5075568;28;20040;-74
2021/10/07 00:57:04;;;;;;;27.35;15.25;;;10.40;99.90;;;;;;5076324;28;20444;-74
2021/10/07 00:59:30;;;;;;;28.13;16.05;;;10.40;99.90;;;;;;5076037;28;20048;-74
2021/10/07 01:01:55;;;;;;;32.08;17.65;;;10.40;99.90;;;;;;5076780;28;20037;-74
2021/10/07 01:04:21;;;;;;;29.40;16.73;;;10.40;99.90;;;;;;5075556;28;20040;-74
2021/10/07 01:06:47;;;;;;;32.33;16.45;;;10.50;99.90;;;;;;5076729;28;20076;-74
2021/10/07 01:09:14;;;;;;;25.55;15.50;;;10.50;99.90;;;;;;5075900;28;20048;-74
2021/10/07 01:11:40;;;;;;;48.45;18.58;;;10.50;99.90;;;;;;5076487;28;20041;-74
2021/10/07 01:14:05;;;;;;;32.45;17.83;;;10.50;99.90;;;;;;5076217;28;20040;-74
2021/10/07 01:16:31;;;;;;;35.58;18.55;;;10.60;99.90;;;;;;5075444;28;20048;-74
2021/10/07 01:18:56;;;;;;;37.30;19.70;;;10.60;99.90;;;;;;5075586;28;20040;-74
2021/10/07 01:21:22;;;;;;;34.50;17.67;;;10.60;99.90;;;;;;5074814;28;20044;-74
2021/10/07 01:23:49;;;;;;;33.55;18.63;;;10.60;99.90;;;;;;5076205;28;20554;-74
2021/10/07 01:26:17;;;;;;;46.30;19.73;;;10.70;99.90;;;;;;5075963;28;20044;-74
2021/10/07 01:28:45;;;;;;;34.00;18.23;;;10.70;99.90;;;;;;5074373;28;20048;-74
2021/10/07 01:31:12;;;;;;;35.70;19.83;;;10.70;99.90;;;;;;5075329;28;20047;-74
2021/10/07 01:33:38;;;;;;;39.70;19.33;;;10.70;99.90;;;;;;5076005;28;20477;-74
2021/10/07 01:36:03;;;;;;;32.63;17.73;;;10.70;99.90;;;;;;5075721;28;20090;-74
2021/10/07 01:38:29;;;;;;;90.47;21.58;;;10.70;99.90;;;;;;5074248;28;20094;-74
2021/10/07 01:40:55;;;;;;;71.72;22.05;;;10.70;99.90;;;;;;5075503;28;20054;-74
2021/10/07 01:43:21;;;;;;;52.53;20.30;;;10.70;99.90;;;;;;5075658;28;20130;-74
2021/10/07 01:45:49;;;;;;;39.03;19.05;;;10.60;99.90;;;;;;5074252;28;20549;-74
2021/10/07 01:48:15;;;;;;;56.08;19.63;;;10.70;99.90;;;;;;5075521;28;20059;-74
2021/10/07 01:50:40;;;;;;;131.23;25.70;;;10.60;99.90;;;;;;5075189;28;20050;-74
2021/10/07 01:53:06;;;;;;;34.28;18.60;;;10.60;99.90;;;;;;5075229;28;20514;-74
2021/10/07 01:55:32;;;;;;;66.13;21.55;;;10.60;99.90;;;;;;5075361;28;20047;-74
2021/10/07 01:57:57;;;;;;;86.85;22.95;;;10.60;99.90;;;;;;5074213;28;20472;-74
2021/10/07 02:00:23;;;;;;;31.92;18.38;;;10.50;99.90;;;;;;5075223;28;20487;-74
2021/10/07 02:02:49;;;;;;;97.85;24.23;;;10.60;99.90;;;;;;5075581;28;20110;-73
2021/10/07 02:05:15;;;;;;;91.18;21.25;;;10.60;99.90;;;;;;5074452;28;20041;-74
2021/10/07 02:07:40;;;;;;;30.42;17.40;;;10.50;99.90;;;;;;5075030;28;20045;-74
2021/10/07 02:10:14;;;;;;;27.05;15.75;;;10.50;99.90;;;;;;5074702;28;20215;-74
2021/10/07 02:12:40;;;;;;;;;;;10.50;99.90;;;;;;5074164;28;20044;-74
2021/10/07 02:15:06;;;;;;;27.15;15.13;;;10.50;99.90;;;;;;5075236;28;19916;-73
2021/10/07 02:17:32;;;;;;;28.42;14.40;;;10.50;99.90;;;;;;5073546;28;20037;-74
2021/10/07 02:19:57;;;;;;;24.35;14.65;;;10.50;99.90;;;;;;5073690;28;20105;-74
2021/10/07 02:22:23;;;;;;;29.40;15.98;;;10.50;99.90;;;;;;5074453;28;20087;-74
2021/10/07 02:24:48;;;;;;;30.48;16.65;;;10.50;99.90;;;;;;5074487;28;20350;-74
2021/10/07 02:27:14;;;;;;;25.13;15.45;;;10.60;99.90;;;;;;5074457;28;20036;-74
2021/10/07 02:29:39;;;;;;;24.17;14.48;;;10.50;99.90;;;;;;5074609;28;20040;-74
2021/10/07 02:32:05;;;;;;;26.20;14.70;;;10.50;99.90;;;;;;5073373;28;20040;-74
2021/10/07 02:34:31;;;;;;;24.02;14.40;;;10.50;99.90;;;;;;5074795;28;20036;-74
2021/10/07 02:36:56;;;;;;;26.00;15.32;;;10.50;99.90;;;;;;5074511;28;20115;-74
2021/10/07 02:39:22;;;;;;;28.65;14.90;;;10.50;99.90;;;;;;5074089;28;20055;-74
2021/10/07 02:41:48;;;;;;;84.07;17.23;;;10.50;99.90;;;;;;5073732;28;20040;-74
2021/10/07 02:44:13;;;;;;;97.15;18.65;;;10.40;99.90;;;;;;5074712;28;20477;-74
2021/10/07 02:46:39;;;;;;;26.15;14.48;;;10.40;99.90;;;;;;5074941;28;20072;-74
2021/10/07 02:49:05;;;;;;;27.63;14.40;;;10.40;99.90;;;;;;5074171;28;20036;-74
2021/10/07 02:51:31;;;;;;;30.67;15.77;;;10.40;99.90;;;;;;5074241;28;20037;-74
2021/10/07 02:53:56;;;;;;;21.77;13.40;;;10.40;99.90;;;;;;5074262;28;20040;-74
2021/10/07 02:56:22;;;;;;;24.67;14.38;;;10.40;99.90;;;;;;5074389;28;20047;-74
2021/10/07 02:58:47;;;;;;;21.60;13.75;;;10.40;99.90;;;;;;5074198;28;20041;-74
2021/10/07 03:01:13;;;;;;;25.27;14.27;;;10.40;99.90;;;;;;5073999;28;20052;-74
2021/10/07 03:03:39;;;;;;;32.75;13.60;;;10.40;99.90;;;;;;5074035;28;20039;-74
2021/10/07 03:06:04;;;;;;;110.70;19.23;;;10.40;99.90;;;;;;5073946;28;20086;-74
2021/10/07 03:08:30;;;;;;;21.05;12.40;;;10.30;99.90;;;;;;5073738;28;20044;-74
2021/10/07 03:10:57;;;;;;;75.18;17.02;;;10.30;99.90;;;;;;5074343;28;20044;-74
2021/10/07 03:13:23;;;;;;;34.78;14.63;;;10.30;99.90;;;;;;5074105;28;20056;-74
2021/10/07 03:15:49;;;;;;;24.55;14.48;;;10.20;99.90;;;;;;5073989;28;20036;-74
2021/10/07 03:18:15;;;;;;;48.63;16.17;;;10.30;99.90;;;;;;5073783;28;20060;-74
2021/10/07 03:20:41;;;;;;;98.32;19.60;;;10.20;99.90;;;;;;5073439;28;20032;-74
2021/10/07 03:23:07;;;;;;;35.25;17.08;;;10.20;99.90;;;;;;5073460;28;20491;-74
2021/10/07 03:25:32;;;;;;;31.15;17.25;;;10.20;99.90;;;;;;5073806;28;20455;-74
2021/10/07 03:27:58;;;;;;;39.30;16.70;;;10.30;99.90;;;;;;5072359;28;20041;-74
2021/10/07 03:30:24;;;;;;;29.08;15.07;;;10.20;99.90;;;;;;5073711;28;20036;-74
2021/10/07 03:32:49;;;;;;;30.75;15.77;;;10.20;99.90;;;;;;5055564;28;20079;-74
2021/10/07 03:35:15;;;;;;;112.97;22.90;;;10.20;99.90;;;;;;5073363;28;20036;-75
2021/10/07 03:37:40;;;;;;;37.35;17.17;;;10.20;99.90;;;;;;5072267;28;20052;-74
2021/10/07 03:40:08;;;;;;;33.90;17.65;;;10.20;99.90;;;;;;5073118;28;20104;-74
2021/10/07 03:42:34;;;;;;;42.97;17.48;;;10.30;99.90;;;;;;5072167;28;20048;-74
2021/10/07 03:45:02;;;;;;;32.00;16.98;;;10.30;99.90;;;;;;5073429;28;20040;-75
2021/10/07 03:47:28;;;;;;;31.48;16.27;;;10.30;99.90;;;;;;5073932;28;20477;-74
2021/10/07 03:49:56;;;;;;;32.33;16.92;;;10.30;99.90;;;;;;5072995;28;20386;-74
2021/10/07 03:52:23;;;;;;;27.83;15.23;;;10.40;99.90;;;;;;5073181;28;20049;-74
2021/10/07 03:54:49;;;;;;;25.02;13.93;;;10.30;99.90;;;;;;5073346;28;20089;-73
2021/10/07 03:57:14;;;;;;;25.80;13.32;;;10.30;99.90;;;;;;5073276;28;20116;-74
2021/10/07 03:59:40;;;;;;;26.80;14.10;;;10.30;99.90;;;;;;5071893;28;20049;-74
2021/10/07 04:02:05;;;;;;;25.75;14.70;;;10.30;99.90;;;;;;5073463;28;20044;-74
2021/10/07 04:04:31;;;;;;;24.50;14.02;;;10.40;99.90;;;;;;5073150;28;20080;-74
2021/10/07 04:06:57;;;;;;;133.02;19.70;;;10.40;99.90;;;;;;5073482;28;20048;-73
2021/10/07 04:09:22;;;;;;;126.15;21.88;;;10.30;99.90;;;;;;5072869;28;20125;-74
2021/10/07 04:11:48;;;;;;;22.25;13.20;;;10.30;99.90;;;;;;5072986;28;20044;-74
2021/10/07 04:14:14;;;;;;;24.63;13.85;;;10.20;99.90;;;;;;5072237;28;20378;-74
2021/10/07 04:16:39;;;;;;;24.85;12.90;;;10.30;99.90;;;;;;5072983;28;20550;-74
2021/10/07 04:19:05;;;;;;;20.83;12.20;;;10.30;99.90;;;;;;5072617;28;20036;-74
2021/10/07 04:21:30;;;;;;;25.65;12.90;;;10.20;99.90;;;;;;5073187;28;20044;-74
2021/10/07 04:23:56;;;;;;;19.40;11.95;;;10.20;99.90;;;;;;5073388;28;20040;-74
2021/10/07 04:26:22;;;;;;;21.83;12.02;;;10.10;99.90;;;;;;5073093;28;20053;-73
2021/10/07 04:28:47;;;;;;;23.45;13.35;;;10.20;99.90;;;;;;5073001;28;20085;-74
2021/10/07 04:31:13;;;;;;;20.42;12.35;;;10.20;99.90;;;;;;5072741;28;20044;-74
2021/10/07 04:33:39;;;;;;;24.05;13.75;;;10.20;99.90;;;;;;5072960;28;20072;-74
2021/10/07 04:36:04;;;;;;;22.23;13.05;;;10.20;99.90;;;;;;5072635;28;20040;-74
2021/10/07 04:38:30;;;;;;;21.52;13.00;;;10.20;99.90;;;;;;5072179;28;20036;-74
2021/10/07 04:40:55;;;;;;;44.97;15.32;;;10.20;99.90;;;;;;5071740;28;20044;-74
2021/10/07 04:43:21;;;;;;;21.27;12.73;;;10.20;99.90;;;;;;5072981;28;20485;-74
2021/10/07 04:45:46;;;;;;;21.52;12.93;;;10.20;99.90;;;;;;5072765;28;20032;-73
2021/10/07 04:48:13;;;;;;;39.50;14.60;;;10.20;99.90;;;;;;5072314;28;20064;-74
2021/10/07 04:50:39;;;;;;;21.75;12.77;;;10.10;99.90;;;;;;5072622;28;20048;-73
2021/10/07 04:53:05;;;;;;;27.80;14.05;;;10.10;99.90;;;;;;5072805;28;20075;-74
2021/10/07 04:55:30;;;;;;;23.80;13.60;;;10.10;99.90;;;;;;5071844;28;20133;-73
2021/10/07 04:57:56;;;;;;;22.10;12.90;;;10.10;99.90;;;;;;5072672;28;20469;-74
2021/10/07 05:00:22;;;;;;;21.52;12.60;;;10.20;99.90;;;;;;5072863;28;20044;-74
2021/10/07 05:02:47;;;;;;;24.58;13.98;;;10.20;99.90;;;;;;5072998;28;20452;-73
2021/10/07 05:05:13;;;;;;;23.55;13.25;;;10.20;99.90;;;;;;5073674;28;20079;-73
2021/10/07 05:07:39;;;;;;;46.67;14.85;;;10.20;99.90;;;;;;5076243;28;20044;-73
2021/10/07 05:10:11;;;;;;;21.83;12.23;;;10.20;99.90;;;;;;5076364;28;20032;-73
2021/10/07 05:12:38;;;;;;;22.17;13.20;;;10.20;99.90;;;;;;5076377;28;20428;-74
2021/10/07 05:15:05;;;;;;;20.52;11.68;;;10.10;99.90;;;;;;5076187;28;20055;-73
2021/10/07 05:17:30;;;;;;;18.77;11.15;;;10.20;99.90;;;;;;5076090;28;20033;-73
2021/10/07 05:19:56;;;;;;;110.95;15.77;;;10.20;99.90;;;;;;5057952;28;20118;-73
2021/10/07 05:22:22;;;;;;;19.05;11.30;;;10.20;99.90;;;;;;5075786;28;20048;-73
2021/10/07 05:24:48;;;;;;;22.23;11.25;;;10.10;99.90;;;;;;5075543;28;20056;-73
2021/10/07 05:27:14;;;;;;;85.30;14.82;;;10.10;99.90;;;;;;5076098;28;20128;-73
2021/10/07 05:29:40;;;;;;;20.55;10.65;;;10.10;99.90;;;;;;5075665;28;20079;-73
2021/10/07 05:32:06;;;;;;;21.95;13.02;;;10.10;99.90;;;;;;5075629;28;20508;-74
2021/10/07 05:34:31;;;;;;;47.70;13.55;;;10.10;99.90;;;;;;5074555;28;20032;-73
2021/10/07 05:36:57;;;;;;;20.77;11.63;;;10.10;99.90;;;;;;5076175;28;20036;-73
2021/10/07 05:39:23;;;;;;;18.70;10.70;;;10.20;99.90;;;;;;5075424;28;20119;-74
2021/10/07 05:41:48;;;;;;;48.70;13.25;;;10.20;99.90;;;;;;5075686;28;20047;-73
2021/10/07 05:44:14;;;;;;;20.98;10.45;;;10.20;99.90;;;;;;5075851;28;20052;-73
2021/10/07 05:46:39;;;;;;;20.65;11.38;;;10.10;99.90;;;;;;5075426;28;20033;-72
2021/10/07 05:49:05;;;;;;;19.00;10.75;;;10.20;99.90;;;;;;5074297;28;20048;-71
2021/10/07 05:51:31;;;;;;;39.28;12.68;;;10.10;99.90;;;;;;5075166;28;20385;-71
2021/10/07 05:53:57;;;;;;;42.78;11.73;;;10.10;99.90;;;;;;5075829;28;20076;-71
2021/10/07 05:56:22;;;;;;;19.42;10.18;;;10.10;99.90;;;;;;5075355;28;20396;-71
2021/10/07 05:58:48;;;;;;;28.08;11.43;;;10.10;99.90;;;;;;5074978;28;20506;-71
2021/10/07 06:01:14;;;;;;;34.75;12.27;;;10.00;99.90;;;;;;5075131;28;20044;-71
2021/10/07 06:03:39;;;;;;;35.33;10.50;;;10.00;99.90;;;;;;5074335;28;20076;-71
2021/10/07 06:06:05;;;;;;;30.50;10.80;;;9.90;99.90;;;;;;5073939;28;20484;-71
2021/10/07 06:08:33;;;;;;;39.78;10.20;;;9.90;99.90;;;;;;5074863;28;20086;-71
2021/10/07 06:10:59;;;;;;;19.17;10.43;;;9.80;99.90;;;;;;5073793;28;20072;-71
2021/10/07 06:13:24;;;;;;;16.98;9.65;;;9.80;99.90;;;;;;5073670;28;20064;-71
2021/10/07 06:15:50;;;;;;;26.70;11.48;;;9.70;99.90;;;;;;5074899;28;20041;-71
2021/10/07 06:18:16;;;;;;;34.90;9.48;;;9.70;99.90;;;;;;5074465;28;20036;-71
2021/10/07 06:20:42;;;;;;;60.85;11.73;;;9.70;99.90;;;;;;5074919;28;20423;-71
2021/10/07 06:23:08;;;;;;;19.52;8.63;;;9.70;99.90;;;;;;5075005;28;20037;-71
2021/10/07 06:25:35;;;;;;;41.67;9.40;;;9.60;99.90;;;;;;5075142;28;20052;-71
2021/10/07 06:28:07;;;;;;;40.65;11.20;;;9.60;99.90;;;;;;5074710;28;20504;-71
2021/10/07 06:30:33;;;;;;;68.97;13.32;;;9.70;99.90;;;;;;5074401;28;20139;-71
2021/10/07 06:32:59;;;;;;;115.38;15.40;;;9.60;99.90;;;;;;5074643;28;20082;-71
2021/10/07 06:35:26;;;;;;;76.85;13.15;;;9.50;99.90;;;;;;5074691;28;20032;-71
2021/10/07 06:37:52;;;;;;;62.10;12.70;;;9.60;99.90;;;;;;5074640;28;20083;-71
2021/10/07 06:40:18;;;;;;;109.40;14.35;;;9.60;99.90;;;;;;5072963;28;20504;-71
2021/10/07 06:42:44;;;;;;;76.82;13.73;;;9.50;99.90;;;;;;5074382;28;20068;-71
2021/10/07 06:45:10;;;;;;;47.10;10.85;;;9.60;99.90;;;;;;5073407;28;20382;-71
2021/10/07 06:47:37;;;;;;;44.95;12.07;;;9.60;99.90;;;;;;5074365;28;20117;-71
2021/10/07 06:50:05;;;;;;;91.10;14.52;;;9.60;99.90;;;;;;5074082;28;20121;-71
2021/10/07 06:52:31;;;;;;;34.08;10.93;;;9.60;99.90;;;;;;5072592;28;20076;-71
2021/10/07 06:54:57;;;;;;;88.47;14.77;;;9.60;99.90;;;;;;5072823;28;20125;-71
2021/10/07 06:57:23;;;;;;;86.50;15.13;;;9.70;99.90;;;;;;5073440;28;20044;-71
2021/10/07 06:59:49;;;;;;;90.78;15.15;;;9.70;99.90;;;;;;5072611;28;20044;-71
2021/10/07 07:02:14;;;;;;;63.08;13.15;;;9.80;99.90;;;;;;5073972;28;20044;-71
2021/10/07 07:04:40;;;;;;;86.47;14.55;;;9.80;99.90;;;;;;5073875;28;20404;-71
2021/10/07 07:07:05;;;;;;;16.25;9.15;;;9.80;99.90;;;;;;5073883;28;20043;-71
2021/10/07 07:09:31;;;;;;;71.45;12.25;;;9.90;99.90;;;;;;5072414;28;20036;-71
2021/10/07 07:11:56;;;;;;;19.02;10.00;;;9.80;99.90;;;;;;5073677;28;20087;-71
2021/10/07 07:14:22;;;;;;;83.93;13.73;;;9.90;99.90;;;;;;5074095;28;20040;-71
2021/10/07 07:16:48;;;;;;;59.78;12.98;;;9.90;99.90;;;;;;5072381;28;20032;-71
2021/10/07 07:19:13;;;;;;;47.50;11.23;;;9.90;99.90;;;;;;5072137;28;20044;-71
2021/10/07 07:21:39;;;;;;;96.47;14.88;;;9.90;99.90;;;;;;5073649;28;20028;-71
2021/10/07 07:24:04;;;;;;;45.28;11.85;;;9.90;99.90;;;;;;5072688;28;20492;-71
2021/10/07 07:26:32;;;;;;;22.50;11.32;;;9.90;99.90;;;;;;5073776;28;20041;-71
2021/10/07 07:28:58;;;;;;;37.38;12.20;;;9.80;99.90;;;;;;5073206;28;20060;-71
2021/10/07 07:31:28;;;;;;;84.22;17.23;;;9.80;99.90;;;;;;5073664;28;20452;-71
2021/10/07 07:33:56;;;;;;;24.38;12.43;;;9.80;99.90;;;;;;5072414;28;20037;-71
2021/10/07 07:36:24;;;;;;;42.67;13.10;;;9.90;99.90;;;;;;5073540;28;20044;-71
2021/10/07 07:38:51;;;;;;;38.97;12.80;;;9.90;99.90;;;;;;5071853;28;20040;-71
2021/10/07 07:41:17;;;;;;;45.03;12.57;;;9.90;99.90;;;;;;5073278;28;20076;-70
2021/10/07 07:43:44;;;;;;;19.17;10.07;;;10.00;99.90;;;;;;5072130;28;20115;-70
2021/10/07 07:46:10;;;;;;;50.95;12.50;;;10.00;99.90;;;;;;5073966;28;20384;-70
2021/10/07 07:48:36;;;;;;;14.98;9.23;;;10.00;99.90;;;;;;5073363;28;20045;-70
2021/10/07 07:51:03;;;;;;;16.33;10.20;;;10.00;99.90;;;;;;5073319;28;20053;-70
2021/10/07 07:53:28;;;;;;;43.08;11.23;;;10.00;99.90;;;;;;5072733;28;20041;-70
2021/10/07 07:55:54;;;;;;;54.45;12.75;;;10.00;99.90;;;;;;5073727;28;20049;-70
2021/10/07 07:58:20;;;;;;;45.03;12.15;;;10.10;99.90;;;;;;5071963;28;20040;-70
2021/10/07 08:00:47;;;;;;;56.17;11.75;;;10.10;99.90;;;;;;5071746;28;20050;-70
2021/10/07 08:03:12;;;;;;;21.65;9.93;;;10.10;99.90;;;;;;5071968;28;20087;-70
2021/10/07 08:05:40;;;;;;;109.65;15.82;;;10.10;99.90;;;;;;5072010;28;20502;-70
2021/10/07 08:08:06;;;;;;;29.20;9.98;;;10.10;99.90;;;;;;5073147;28;20036;-70
2021/10/07 08:10:32;;;;;;;40.03;10.93;;;10.00;99.90;;;;;;5071676;28;20043;-71
2021/10/07 08:12:58;;;;;;;19.73;8.98;;;10.00;99.90;;;;;;5072162;28;20037;-70
2021/10/07 08:15:23;;;;;;;15.45;7.80;;;10.10;99.90;;;;;;5073293;28;20033;-70
2021/10/07 08:17:49;;;;;;;43.65;9.75;;;10.20;99.90;;;;;;5072853;28;20453;-70
2021/10/07 08:20:16;;;;;;;27.05;8.85;;;10.10;99.90;;;;;;5073204;28;20066;-71
2021/10/07 08:22:43;;;;;;;48.63;11.27;;;10.20;99.90;;;;;;5072834;28;20116;-70
2021/10/07 08:25:10;;;;;;;23.73;8.70;;;10.20;99.90;;;;;;5073181;28;20040;-70
2021/10/07 08:27:37;;;;;;;86.75;14.55;;;10.20;99.90;;;;;;5071678;28;20489;-71
2021/10/07 08:30:04;;;;;;;38.65;11.75;;;10.20;99.90;;;;;;5071993;28;20465;-71
2021/10/07 08:32:30;;;;;;;30.83;10.32;;;10.30;99.90;;;;;;5071437;28;20099;-71
2021/10/07 08:34:56;;;;;;;51.08;12.80;;;10.30;99.90;;;;;;5073705;28;20037;-71
2021/10/07 08:37:21;;;;;;;26.98;10.18;;;10.30;99.90;;;;;;5073422;28;20119;-72
2021/10/07 08:39:47;;;;;;;22.83;9.60;;;10.40;99.90;;;;;;5071628;28;20040;-71
2021/10/07 08:42:14;;;;;;;30.05;11.15;;;10.40;99.90;;;;;;5076623;28;20048;-71
2021/10/07 08:44:40;;;;;;;30.63;11.57;;;10.40;99.90;;;;;;5075439;28;20052;-71
2021/10/07 08:47:05;;;;;;;24.55;10.52;;;10.40;99.90;;;;;;5076738;28;20090;-71
2021/10/07 08:49:36;;;;;;;44.33;14.05;;;10.40;99.90;;;;;;5076296;28;20043;-70
2021/10/07 08:52:02;;;;;;;37.72;11.70;;;10.40;99.90;;;;;;5076308;28;20492;-69
2021/10/07 08:54:31;;;;;;;57.13;14.75;;;10.50;99.90;;;;;;5075251;28;20077;-70
2021/10/07 08:56:56;;;;;;;26.63;11.77;;;10.40;99.90;;;;;;5075443;28;20477;-69
2021/10/07 08:59:22;;;;;;;37.83;13.95;;;10.50;99.90;;;;;;5076475;28;20036;-70
2021/10/07 09:01:49;;;;;;;43.97;15.30;;;10.50;99.90;;;;;;5075253;28;20048;-70
2021/10/07 09:04:26;;;;;;;23.58;12.15;;;10.50;99.90;;;;;;5076498;28;20119;-70
2021/10/07 09:07:02;;;;;;;34.90;13.80;;;10.60;99.90;;;;;;5076627;28;20055;-69
2021/10/07 09:09:29;;;;;;;30.02;12.68;;;10.60;99.90;;;;;;5076176;28;20048;-69
2021/10/07 09:12:01;;;;;;;29.80;14.07;;;10.60;99.90;;;;;;5076145;28;20401;-69
2021/10/07 09:14:33;;;;;;;27.33;13.52;;;10.60;99.90;;;;;;5076171;28;20078;-69
2021/10/07 09:16:59;;;;;;;27.10;13.80;;;10.60;99.90;;;;;;5076007;28;20108;-70
2021/10/07 09:19:28;;;;;;;43.72;14.43;;;10.70;99.90;;;;;;5076027;28;20047;-70
2021/10/07 09:21:56;;;;;;;27.65;13.32;;;10.70;99.90;;;;;;5075067;28;20060;-69
2021/10/07 09:24:33;;;;;;;33.58;13.30;;;10.70;99.90;;;;;;5076517;28;20106;-69
2021/10/07 09:27:32;;;;;;;24.70;12.50;;;10.70;99.90;;;;;;5074671;28;20041;-69
2021/10/07 09:30:00;;;;;;;31.27;13.95;;;10.70;99.90;;;;;;5075063;28;20190;-69
2021/10/07 09:32:29;;;;;;;28.05;14.27;;;10.80;99.90;;;;;;5074789;28;20050;-69
2021/10/07 09:34:56;;;;;;;35.55;14.55;;;10.80;99.90;;;;;;5075988;28;20044;-69
2021/10/07 09:37:34;;;;;;;33.00;14.75;;;10.90;99.90;;;;;;5076038;28;20090;-69
2021/10/07 09:40:06;;;;;;;28.98;14.65;;;10.90;99.90;;;;;;5075251;28;20037;-69
2021/10/07 09:42:34;;;;;;;30.05;15.07;;;10.80;99.90;;;;;;5074266;28;20040;-69
2021/10/07 09:45:13;;;;;;;40.13;16.67;;;10.90;99.90;;;;;;5074519;28;20124;-70
2021/10/07 09:48:06;;;;;;;33.78;15.93;;;10.90;99.90;;;;;;5075884;28;20083;-69
2021/10/07 09:50:34;;;;;;;28.95;14.60;;;10.90;99.90;;;;;;5073725;28;20048;-69
2021/10/07 09:53:11;;;;;;;31.52;14.95;;;11.00;99.90;;;;;;5074598;28;20384;-70
2021/10/07 09:55:43;;;;;;;45.95;19.45;;;11.00;99.90;;;;;;5074290;28;20120;-69
2021/10/07 09:58:13;;;;;;;39.67;17.13;;;11.00;99.90;;;;;;5075319;28;20033;-70
2021/10/07 10:00:44;;;;;;;35.38;15.85;;;11.10;99.90;;;;;;5075258;28;20106;-69
2021/10/07 10:03:10;;;;;;;37.13;16.67;;;11.10;99.90;;;;;;5075249;28;20062;-70
2021/10/07 10:05:38;;;;;;;33.63;17.35;;;11.10;99.90;;;;;;5074141;28;20055;-70
2021/10/07 10:08:06;;;;;;;39.10;18.63;;;11.10;99.90;;;;;;5075262;28;20033;-70
2021/10/07 10:10:32;;;;;;;32.13;15.73;;;11.20;99.90;;;;;;5073311;28;20036;-70
2021/10/07 10:12:58;;;;;;;32.22;16.23;;;11.30;99.90;;;;;;5057415;28;20037;-70
2021/10/07 10:15:24;;;;;;;40.50;18.73;;;11.30;99.90;;;;;;5075071;28;20102;-70
2021/10/07 10:17:51;;;;;;;36.50;17.55;;;11.30;99.90;;;;;;5074907;28;20111;-69
2021/10/07 10:20:24;;;;;;;33.08;18.52;;;11.40;99.90;;;;;;5073409;28;20538;-70
2021/10/07 10:23:07;;;;;;;34.85;17.02;;;11.40;99.90;;;;;;5073485;28;20044;-69
2021/10/07 10:25:58;;;;;;;33.78;17.13;;;11.40;99.90;;;;;;5075282;28;20052;-69
2021/10/07 10:28:38;;;;;;;32.55;16.38;;;11.40;99.90;;;;;;5074808;28;20158;-69
2021/10/07 10:31:06;;;;;;;36.80;18.05;;;11.50;99.90;;;;;;5073225;28;20124;-69
2021/10/07 10:33:34;;;;;;;34.72;18.20;;;11.50;99.90;;;;;;5074562;28;20037;-70
2021/10/07 10:36:00;;;;;;;38.28;16.88;;;11.50;99.90;;;;;;5074644;28;20047;-71
2021/10/07 10:38:29;;;;;;;34.33;16.73;;;11.60;99.90;;;;;;5074542;28;20075;-70
2021/10/07 10:41:09;;;;;;;35.25;17.65;;;11.60;99.90;;;;;;5074269;28;20044;-71
2021/10/07 10:43:36;;;;;;;37.65;18.42;;;11.60;99.90;;;;;;5074621;28;20040;-70
2021/10/07 10:46:01;;;;;;;37.08;17.98;;;11.60;99.90;;;;;;5074463;28;20492;-70
2021/10/07 10:48:44;;;;;;;32.35;17.27;;;11.60;99.90;;;;;;5074434;28;20123;-71
2021/10/07 10:51:22;;;;;;;35.22;17.55;;;11.70;99.90;;;;;;5072812;28;20048;-71
2021/10/07 10:53:56;;;;;;;34.63;17.13;;;11.70;99.90;;;;;;5074433;28;20040;-69
2021/10/07 10:56:21;;;;;;;33.58;16.75;;;11.70;99.90;;;;;;5072678;28;20051;-69
2021/10/07 10:58:54;;;;;;;32.95;17.55;;;11.70;99.90;;;;;;5073596;28;20037;-68
2021/10/07 11:01:20;;;;;;;35.25;18.38;;;11.70;99.90;;;;;;5074084;28;20060;-69
2021/10/07 11:03:46;;;;;;;32.05;17.60;;;11.70;99.90;;;;;;5073532;28;20489;-69
2021/10/07 11:06:12;;;;;;;29.77;16.67;;;11.70;99.90;;;;;;5074006;28;20036;-69
2021/10/07 11:08:40;;;;;;;27.70;15.23;;;11.70;99.90;;;;;;5072412;28;20055;-69
2021/10/07 11:11:21;;;;;;;29.75;16.63;;;11.70;99.90;;;;;;5073613;28;20047;-69
2021/10/07 11:13:47;;;;;;;25.13;14.82;;;11.80;99.90;;;;;;5074658;28;20029;-69
2021/10/07 11:16:17;;;;;;;30.95;17.38;;;11.70;99.90;;;;;;5073621;28;20032;-69
2021/10/07 11:18:43;;;;;;;30.00;17.52;;;11.80;99.90;;;;;;5073513;28;20115;-69
2021/10/07 11:21:18;;;;;;;30.25;16.75;;;11.80;99.90;;;;;;5072454;28;20040;-69
2021/10/07 11:23:51;;;;;;;28.15;16.67;;;11.90;99.90;;;;;;5072360;28;20048;-69
2021/10/07 11:26:19;;;;;;;32.10;17.55;;;11.90;99.90;;;;;;5073533;28;20040;-69
2021/10/07 11:28:47;;;;;;;38.70;19.30;;;11.80;99.90;;;;;;5073502;28;20036;-70
2021/10/07 11:31:18;;;;;;;34.30;18.17;;;11.90;99.90;;;;;;5073845;28;20119;-70
2021/10/07 11:33:45;;;;;;;34.97;18.60;;;11.90;99.90;;;;;;5072702;28;20048;-70
2021/10/07 11:36:17;;;;;;;30.58;17.42;;;11.80;99.90;;;;;;5072411;28;20396;-70
2021/10/07 11:38:45;;;;;;;31.40;18.25;;;11.80;99.90;;;;;;5072444;28;20043;-70
2021/10/07 11:41:11;;;;;;;32.28;18.23;;;11.80;99.90;;;;;;5073889;28;20075;-70
2021/10/07 11:43:38;;;;;;;31.67;18.10;;;11.80;99.90;;;;;;5072681;28;20072;-70
2021/10/07 11:46:11;;;;;;;31.73;18.85;;;11.80;99.90;;;;;;5072338;28;20055;-71
2021/10/07 11:48:37;;;;;;;35.70;19.88;;;11.80;99.90;;;;;;5072176;28;20146;-71
2021/10/07 11:51:05;;;;;;;37.40;20.95;;;11.80;99.90;;;;;;5055541;28;20048;-70
2021/10/07 11:53:40;;;;;;;35.45;20.13;;;11.90;99.90;;;;;;5072038;28;20032;-70
2021/10/07 11:56:13;;;;;;;38.72;20.52;;;11.90;99.90;;;;;;5072269;28;20094;-70
2021/10/07 11:58:39;;;;;;;38.70;21.35;;;12.00;99.90;;;;;;5073024;28;20485;-71
2021/10/07 12:01:05;;;;;;;44.78;23.88;;;12.00;99.90;;;;;;5073092;28;20036;-70
2021/10/07 12:03:35;;;;;;;40.95;22.55;;;12.10;99.90;;;;;;5073485;28;20110;-70
2021/10/07 12:06:01;;;;;;;44.03;22.88;;;12.20;99.90;;;;;;5073353;28;20037;-71
2021/10/07 12:08:30;;;;;;;40.13;22.02;;;12.20;99.90;;;;;;5072173;28;20052;-71
2021/10/07 12:11:01;;;;;;;39.13;22.75;;;12.20;99.90;;;;;;5073112;28;20151;-70
2021/10/07 12:13:30;;;;;;;43.88;22.73;;;12.30;99.90;;;;;;5073327;28;20033;-71
2021/10/07 12:16:02;;;;;;;39.88;22.52;;;12.30;99.90;;;;;;5074281;28;20055;-71
2021/10/07 12:18:29;;;;;;;38.30;22.70;;;12.40;99.90;;;;;;5076440;28;20048;-71
2021/10/07 12:21:06;;;;;;;40.10;22.45;;;12.50;99.90;;;;;;5077207;28;20037;-71
2021/10/07 12:23:50;;;;;;;41.20;23.20;;;12.50;99.90;;;;;;5077377;28;20044;-70
2021/10/07 12:26:24;;;;;;;38.45;23.17;;;12.50;99.90;;;;;;5077411;28;20109;-71
2021/10/07 12:28:52;;;;;;;37.25;23.33;;;12.50;99.90;;;;;;5076505;28;20047;-70
2021/10/07 12:31:22;;;;;;;40.30;23.27;;;12.50;99.90;;;;;;5076699;28;20401;-71
2021/10/07 12:34:04;;;;;;;40.97;24.42;;;12.60;99.90;;;;;;5077250;28;20033;-71